createdAt,value
2019-03-16T00:00:32.464Z,82.22
2019-03-16T00:03:01.893Z,81.96
2019-03-16T00:05:31.333Z,82.25
2019-03-16T00:08:00.765Z,82.16
2019-03-16T00:10:30.206Z,82.26
2019-03-16T00:12:59.633Z,81.93
2019-03-16T00:15:29.348Z,81.98
2019-03-16T00:17:58.784Z,81.81
2019-03-16T00:20:28.214Z,82.25
2019-03-16T00:22:57.650Z,82.65
2019-03-16T00:25:27.091Z,82.17
2019-03-16T00:27:56.522Z,82.38
2019-03-16T00:30:25.960Z,81.89
2019-03-16T00:32:55.388Z,81.61
2019-03-16T00:35:24.830Z,81.73
2019-03-16T00:37:54.257Z,81.60
2019-03-16T00:40:23.700Z,81.05
2019-03-16T00:42:53.206Z,81.06
2019-03-16T00:45:22.643Z,81.39
2019-03-16T00:47:52.068Z,81.26
2019-03-16T00:50:21.513Z,81.53
2019-03-16T00:52:50.950Z,81.13
2019-03-16T00:55:20.390Z,80.95
2019-03-16T00:57:49.826Z,81.38
2019-03-16T01:00:19.337Z,81.28
2019-03-16T01:02:48.771Z,81.63
2019-03-16T01:05:18.214Z,81.10
2019-03-16T01:07:47.645Z,81.12
2019-03-16T01:10:17.088Z,81.33
2019-03-16T01:12:46.520Z,81.19
2019-03-16T01:15:16.026Z,81.37
2019-03-16T01:17:45.534Z,81.16
2019-03-16T01:20:15.252Z,80.66
2019-03-16T01:22:44.686Z,81.17
2019-03-16T01:25:14.370Z,81.29
2019-03-16T01:27:43.805Z,80.94
2019-03-16T01:30:16.218Z,80.92
2019-03-16T01:32:45.646Z,80.88
2019-03-16T01:35:15.259Z,80.73
2019-03-16T01:37:44.689Z,80.73
2019-03-16T01:40:14.213Z,80.83
2019-03-16T01:42:43.642Z,81.09
2019-03-16T01:45:13.157Z,81.09
2019-03-16T01:47:42.585Z,80.93
2019-03-16T01:50:12.962Z,81.38
2019-03-16T01:52:42.395Z,81.30
2019-03-16T01:55:11.832Z,81.21
2019-03-16T01:57:41.262Z,81.27
2019-03-16T02:00:17.135Z,80.68
2019-03-16T02:02:54.898Z,81.09
2019-03-16T02:05:17.731Z,80.71
2019-03-16T02:07:47.161Z,81.11
2019-03-16T02:10:16.603Z,81.00
2019-03-16T02:12:46.042Z,81.13
2019-03-16T02:15:15.550Z,80.96
2019-03-16T02:17:44.979Z,81.00
2019-03-16T02:20:15.866Z,81.33
2019-03-16T02:22:45.303Z,81.01
2019-03-16T02:25:14.739Z,80.72
2019-03-16T02:27:44.166Z,80.21
2019-03-16T02:30:14.383Z,80.08
2019-03-16T02:32:43.818Z,79.92
2019-03-16T02:35:13.259Z,80.18
2019-03-16T02:37:42.688Z,80.48
2019-03-16T02:40:12.508Z,80.05
2019-03-16T02:42:41.941Z,80.26
2019-03-16T02:45:11.710Z,79.70
2019-03-16T02:47:41.141Z,79.79
2019-03-16T02:50:12.332Z,79.52
2019-03-16T02:52:41.762Z,79.24
2019-03-16T02:55:11.284Z,78.95
2019-03-16T02:57:40.722Z,79.32
2019-03-16T03:00:14.052Z,79.00
2019-03-16T03:02:43.499Z,79.10
2019-03-16T03:05:12.996Z,78.70
2019-03-16T03:07:42.512Z,78.66
2019-03-16T03:10:14.775Z,78.39
2019-03-16T03:12:44.168Z,78.40
2019-03-16T03:15:15.438Z,77.79
2019-03-16T03:17:44.823Z,77.99
2019-03-16T03:20:14.340Z,78.00
2019-03-16T03:22:43.778Z,78.00
2019-03-16T03:25:13.215Z,77.68
2019-03-16T03:27:42.647Z,77.63
2019-03-16T03:30:13.749Z,77.69
2019-03-16T03:32:43.172Z,77.34
2019-03-16T03:35:12.632Z,77.43
2019-03-16T03:37:42.122Z,77.63
2019-03-16T03:40:12.995Z,77.86
2019-03-16T03:42:42.425Z,78.10
2019-03-16T03:45:13.567Z,77.92
2019-03-16T03:47:43.041Z,78.73
2019-03-16T03:50:15.021Z,79.10
2019-03-16T03:52:44.474Z,78.46
2019-03-16T03:55:15.127Z,79.00
2019-03-16T03:57:44.560Z,79.57
2019-03-16T04:00:18.524Z,79.68
2019-03-16T04:02:48.055Z,79.57
2019-03-16T04:05:17.466Z,79.57
2019-03-16T04:07:46.914Z,80.01
2019-03-16T04:10:16.490Z,79.98
2019-03-16T04:12:45.935Z,79.42
2019-03-16T04:15:15.529Z,79.73
2019-03-16T04:17:44.968Z,79.37
2019-03-16T04:20:15.304Z,79.41
2019-03-16T04:22:44.763Z,79.76
2019-03-16T04:25:14.193Z,79.63
2019-03-16T04:27:43.707Z,79.28
2019-03-16T04:30:13.706Z,79.65
2019-03-16T04:32:43.214Z,79.42
2019-03-16T04:35:12.720Z,79.66
2019-03-16T04:37:42.169Z,79.38
2019-03-16T04:40:12.372Z,79.86
2019-03-16T04:42:41.814Z,79.64
2019-03-16T04:45:14.274Z,79.79
2019-03-16T04:47:43.707Z,80.01
2019-03-16T04:50:13.895Z,79.91
2019-03-16T04:52:43.336Z,79.86
2019-03-16T04:55:12.771Z,79.79
2019-03-16T04:57:42.219Z,80.04
2019-03-16T05:00:15.634Z,80.29
2019-03-16T05:02:45.069Z,80.32
2019-03-16T05:05:14.562Z,80.27
2019-03-16T05:07:44.010Z,80.22
2019-03-16T05:10:13.605Z,79.79
2019-03-16T05:12:43.050Z,79.95
2019-03-16T05:15:12.484Z,79.93
2019-03-16T05:17:41.925Z,79.91
2019-03-16T05:20:12.397Z,79.64
2019-03-16T05:22:41.834Z,79.60
2019-03-16T05:25:12.514Z,79.83
2019-03-16T05:27:41.954Z,80.01
2019-03-16T05:30:14.970Z,80.13
2019-03-16T05:32:44.420Z,79.99
2019-03-16T05:35:13.857Z,79.90
2019-03-16T05:37:43.327Z,79.83
2019-03-16T05:40:12.719Z,79.87
2019-03-16T05:42:42.155Z,79.45
2019-03-16T05:45:11.859Z,79.85
2019-03-16T05:47:41.305Z,79.86
2019-03-16T05:50:15.604Z,80.18
2019-03-16T05:52:45.051Z,80.11
2019-03-16T05:55:14.485Z,79.71
2019-03-16T05:57:43.932Z,79.94
2019-03-16T06:00:16.936Z,79.90
2019-03-16T06:02:46.374Z,79.72
2019-03-16T06:05:15.812Z,79.70
2019-03-16T06:07:45.251Z,79.52
2019-03-16T06:10:14.686Z,79.80
2019-03-16T06:12:46.653Z,79.75
2019-03-16T06:15:15.285Z,80.08
2019-03-16T06:17:44.724Z,79.64
2019-03-16T06:20:15.300Z,79.80
2019-03-16T06:22:44.736Z,79.67
2019-03-16T06:25:14.203Z,79.77
2019-03-16T06:27:43.608Z,79.44
2019-03-16T06:30:15.360Z,79.53
2019-03-16T06:32:44.785Z,79.90
2019-03-16T06:35:24.403Z,79.70
2019-03-16T06:37:45.389Z,79.40
2019-03-16T06:40:14.893Z,79.63
2019-03-16T06:42:44.407Z,79.22
2019-03-16T06:45:14.185Z,79.40
2019-03-16T06:47:43.624Z,79.30
2019-03-16T06:50:14.966Z,79.14
2019-03-16T06:52:44.397Z,79.33
2019-03-16T06:55:13.907Z,78.99
2019-03-16T06:57:43.351Z,78.87
2019-03-16T07:00:17.857Z,78.88
2019-03-16T07:02:47.288Z,78.79
2019-03-16T07:05:19.852Z,78.19
2019-03-16T07:07:47.954Z,78.41
2019-03-16T07:10:17.392Z,78.31
2019-03-16T07:12:46.827Z,77.99
2019-03-16T07:15:17.204Z,77.78
2019-03-16T07:17:47.472Z,78.07
2019-03-16T07:20:17.581Z,78.47
2019-03-16T07:22:47.013Z,78.25
2019-03-16T07:25:16.458Z,78.05
2019-03-16T07:27:45.885Z,78.20
2019-03-16T07:30:15.769Z,78.32
2019-03-16T07:32:45.202Z,78.42
2019-03-16T07:35:14.926Z,78.13
2019-03-16T07:37:44.360Z,78.37
2019-03-16T07:40:14.837Z,78.34
2019-03-16T07:42:44.272Z,77.62
2019-03-16T07:45:14.466Z,77.65
2019-03-16T07:47:43.881Z,77.82
2019-03-16T07:50:14.529Z,77.55
2019-03-16T07:52:43.961Z,77.57
2019-03-16T07:55:13.479Z,77.71
2019-03-16T07:57:42.926Z,77.20
2019-03-16T08:00:13.604Z,77.05
2019-03-16T08:02:43.040Z,77.18
2019-03-16T08:05:18.701Z,77.24
2019-03-16T08:07:43.714Z,77.36
2019-03-16T08:10:13.751Z,77.55
2019-03-16T08:12:43.189Z,77.18
2019-03-16T08:15:12.795Z,77.29
2019-03-16T08:17:42.225Z,77.26
2019-03-16T08:20:12.405Z,77.41
2019-03-16T08:22:41.843Z,76.98
2019-03-16T08:25:11.557Z,76.59
2019-03-16T08:27:53.408Z,76.37
2019-03-16T08:30:12.685Z,76.96
2019-03-16T08:32:42.117Z,77.14
2019-03-16T08:35:11.554Z,77.19
2019-03-16T08:37:40.993Z,77.04
2019-03-16T08:40:12.237Z,77.25
2019-03-16T08:42:41.679Z,77.22
2019-03-16T08:45:11.657Z,77.01
2019-03-16T08:47:41.091Z,76.70
2019-03-16T08:50:11.979Z,76.33
2019-03-16T08:52:41.403Z,76.63
2019-03-16T08:55:11.384Z,76.22
2019-03-16T08:57:40.822Z,75.71
2019-03-16T09:00:14.813Z,76.51
2019-03-16T09:02:44.251Z,76.54
2019-03-16T09:05:13.686Z,75.90
2019-03-16T09:07:43.118Z,76.40
2019-03-16T09:10:12.694Z,76.21
2019-03-16T09:12:53.967Z,76.25
2019-03-16T09:15:15.401Z,76.46
2019-03-16T09:17:44.832Z,76.87
2019-03-16T09:20:14.414Z,77.01
2019-03-16T09:22:43.844Z,76.87
2019-03-16T09:25:13.290Z,77.05
2019-03-16T09:27:42.720Z,78.23
2019-03-16T09:30:16.549Z,78.94
2019-03-16T09:32:45.995Z,79.27
2019-03-16T09:35:15.657Z,79.05
2019-03-16T09:37:45.105Z,79.24
2019-03-16T09:40:14.597Z,79.62
2019-03-16T09:42:44.049Z,79.90
2019-03-16T09:45:14.429Z,79.97
2019-03-16T09:47:43.868Z,79.79
2019-03-16T09:50:13.374Z,79.71
2019-03-16T09:52:42.827Z,80.09
2019-03-16T09:55:13.176Z,79.49
2019-03-16T09:57:42.706Z,79.31
2019-03-16T10:00:16.771Z,79.15
2019-03-16T10:02:46.227Z,78.44
2019-03-16T10:05:15.732Z,78.69
2019-03-16T10:07:45.170Z,78.36
2019-03-16T10:10:15.650Z,77.23
2019-03-16T10:12:45.141Z,76.26
2019-03-16T10:15:15.311Z,75.46
2019-03-16T10:17:44.794Z,75.22
2019-03-16T10:20:15.256Z,75.01
2019-03-16T10:22:44.715Z,74.53
2019-03-16T10:25:14.386Z,73.26
2019-03-16T10:27:43.807Z,71.83
2019-03-16T10:30:16.331Z,72.80
2019-03-16T10:32:45.834Z,71.98
2019-03-16T10:35:15.264Z,71.64
2019-03-16T10:37:44.730Z,70.55
2019-03-16T10:40:15.185Z,69.81
2019-03-16T10:42:44.917Z,69.79
2019-03-16T10:45:14.344Z,69.78
2019-03-16T10:47:43.946Z,70.17
2019-03-16T10:50:14.695Z,68.92
2019-03-16T10:52:44.215Z,69.13
2019-03-16T10:55:14.278Z,68.33
2019-03-16T10:57:44.110Z,68.80
2019-03-16T11:00:18.442Z,68.90
2019-03-16T11:02:48.416Z,68.29
2019-03-16T11:05:19.932Z,68.46
2019-03-16T11:07:49.884Z,68.50
2019-03-16T11:10:19.376Z,67.68
2019-03-16T11:12:48.972Z,66.83
2019-03-16T11:15:18.420Z,66.70
2019-03-16T11:17:47.890Z,66.19
2019-03-16T11:20:19.332Z,66.11
2019-03-16T11:22:48.764Z,65.57
2019-03-16T11:25:18.205Z,64.44
2019-03-16T11:27:47.642Z,64.81
2019-03-16T11:30:18.377Z,64.42
2019-03-16T11:32:47.824Z,63.84
2019-03-16T11:35:17.254Z,64.39
2019-03-16T11:37:46.706Z,63.87
2019-03-16T11:40:19.773Z,63.25
2019-03-16T11:42:49.221Z,63.97
2019-03-16T11:45:18.654Z,63.48
2019-03-16T11:47:48.100Z,63.94
2019-03-16T11:50:17.825Z,64.25
2019-03-16T11:52:47.276Z,63.18
2019-03-16T11:55:16.964Z,64.06
2019-03-16T11:57:46.403Z,62.91
2019-03-16T12:00:16.278Z,63.47
2019-03-16T12:02:45.753Z,63.64
2019-03-16T12:05:15.181Z,63.15
2019-03-16T12:07:44.633Z,63.46
2019-03-16T12:10:15.804Z,62.85
2019-03-16T12:12:45.299Z,62.40
2019-03-16T12:15:15.460Z,62.60
2019-03-16T12:17:44.919Z,62.21
2019-03-16T12:20:18.081Z,62.13
2019-03-16T12:22:47.655Z,62.51
2019-03-16T12:25:17.084Z,61.97
2019-03-16T12:27:46.528Z,61.16
2019-03-16T12:30:16.919Z,60.98
2019-03-16T12:32:46.378Z,60.79
2019-03-16T12:35:15.826Z,59.73
2019-03-16T12:37:45.290Z,60.47
2019-03-16T12:40:15.932Z,60.02
2019-03-16T12:42:45.389Z,59.76
2019-03-16T12:45:20.776Z,60.14
2019-03-16T12:47:50.477Z,59.94
2019-03-16T12:50:19.910Z,58.48
2019-03-16T12:52:49.351Z,58.80
2019-03-16T12:55:18.781Z,59.36
2019-03-16T12:57:48.515Z,58.75
2019-03-16T13:00:21.246Z,59.21
2019-03-16T13:02:50.690Z,59.23
2019-03-16T13:05:20.120Z,57.73
2019-03-16T13:07:49.564Z,58.09
2019-03-16T13:10:20.201Z,57.10
2019-03-16T13:12:49.721Z,58.26
2019-03-16T13:15:19.223Z,58.14
2019-03-16T13:17:48.689Z,57.64
2019-03-16T13:20:18.582Z,56.69
2019-03-16T13:22:48.000Z,56.28
2019-03-16T13:25:17.444Z,55.83
2019-03-16T13:27:46.935Z,55.78
2019-03-16T13:30:17.943Z,55.47
2019-03-16T13:32:47.352Z,56.56
2019-03-16T13:35:16.879Z,55.88
2019-03-16T13:37:46.323Z,56.41
2019-03-16T13:40:18.891Z,56.26
2019-03-16T13:42:48.393Z,55.55
2019-03-16T13:45:17.844Z,56.08
2019-03-16T13:47:47.278Z,55.88
2019-03-16T13:50:19.893Z,56.08
2019-03-16T13:52:49.596Z,55.88
2019-03-16T13:55:19.114Z,56.08
2019-03-16T13:57:48.551Z,56.03
2019-03-16T14:00:21.169Z,56.05
2019-03-16T14:02:50.605Z,55.87
2019-03-16T14:05:20.045Z,56.04
2019-03-16T14:07:49.483Z,55.74
2019-03-16T14:10:30.242Z,55.73
2019-03-16T14:12:59.675Z,55.63
2019-03-16T14:15:29.120Z,56.29
2019-03-16T14:17:58.657Z,56.30
2019-03-16T14:20:28.063Z,55.59
2019-03-16T14:22:57.775Z,55.19
2019-03-16T14:25:27.212Z,55.12
2019-03-16T14:27:56.647Z,55.34
2019-03-16T14:30:40.489Z,55.39
2019-03-16T14:32:57.571Z,54.94
2019-03-16T14:35:27.017Z,53.70
2019-03-16T14:37:56.449Z,53.81
2019-03-16T14:40:26.266Z,54.93
2019-03-16T14:42:55.784Z,54.87
2019-03-16T14:45:25.507Z,53.78
2019-03-16T14:47:54.953Z,53.16
2019-03-16T14:50:26.544Z,53.34
2019-03-16T14:52:55.977Z,53.65
2019-03-16T14:55:25.441Z,54.18
2019-03-16T14:57:54.893Z,54.26
2019-03-16T15:00:37.228Z,53.98
2019-03-16T15:02:55.555Z,53.73
2019-03-16T15:05:25.009Z,52.99
2019-03-16T15:07:54.456Z,53.50
2019-03-16T15:10:23.934Z,53.07
2019-03-16T15:12:53.358Z,52.69
2019-03-16T15:15:22.872Z,53.70
2019-03-16T15:17:52.305Z,53.63
2019-03-16T15:20:21.748Z,53.63
2019-03-16T15:22:53.511Z,53.64
2019-03-16T15:25:22.358Z,53.81
2019-03-16T15:27:51.823Z,53.59
2019-03-16T15:30:22.505Z,53.74
2019-03-16T15:32:51.946Z,54.20
2019-03-16T15:35:21.386Z,53.30
2019-03-16T15:37:50.821Z,52.86
2019-03-16T15:40:20.263Z,53.09
2019-03-16T15:42:49.689Z,53.19
2019-03-16T15:45:21.648Z,52.20
2019-03-16T15:47:51.082Z,50.07
2019-03-16T15:50:20.526Z,47.64
2019-03-16T15:52:49.970Z,43.63
2019-03-16T15:55:19.478Z,41.14
2019-03-16T15:57:48.920Z,38.59
2019-03-16T16:00:19.742Z,37.77
2019-03-16T16:02:49.172Z,37.89
2019-03-16T16:05:18.624Z,35.79
2019-03-16T16:07:48.059Z,36.72
2019-03-16T16:10:20.705Z,37.82
2019-03-16T16:12:50.153Z,40.96
2019-03-16T16:15:19.659Z,42.07
2019-03-16T16:17:49.087Z,42.68
2019-03-16T16:20:21.242Z,43.14
2019-03-16T16:22:50.675Z,43.20
2019-03-16T16:25:20.123Z,43.45
2019-03-16T16:27:49.548Z,45.02
2019-03-16T16:30:20.796Z,45.99
2019-03-16T16:32:50.230Z,46.25
2019-03-16T16:35:19.743Z,45.88
2019-03-16T16:37:49.174Z,42.16
2019-03-16T16:40:20.502Z,39.36
2019-03-16T16:42:50.172Z,35.98
2019-03-16T16:45:19.745Z,36.45
2019-03-16T16:47:49.182Z,41.48
2019-03-16T16:50:26.337Z,44.81
2019-03-16T16:52:55.767Z,46.75
2019-03-16T16:55:25.218Z,48.63
2019-03-16T16:57:54.649Z,50.23
2019-03-16T17:00:26.703Z,50.91
2019-03-16T17:02:56.136Z,51.17
2019-03-16T17:05:25.579Z,53.23
2019-03-16T17:07:55.014Z,53.73
2019-03-16T17:10:24.446Z,54.73
2019-03-16T17:12:53.883Z,55.02
2019-03-16T17:15:24.634Z,55.79
2019-03-16T17:17:54.088Z,56.80
2019-03-16T17:20:23.585Z,57.46
2019-03-16T17:22:53.021Z,58.19
2019-03-16T17:25:22.452Z,58.73
2019-03-16T17:27:54.225Z,59.58
2019-03-16T17:30:31.242Z,60.52
2019-03-16T17:33:00.681Z,61.59
2019-03-16T17:35:30.115Z,61.96
2019-03-16T17:37:59.556Z,62.12
2019-03-16T17:40:28.984Z,62.69
2019-03-16T17:42:58.433Z,63.12
2019-03-16T17:45:27.865Z,63.51
2019-03-16T17:47:57.377Z,64.13
2019-03-16T17:50:26.822Z,63.76
2019-03-16T17:52:56.254Z,64.14
2019-03-16T17:55:25.691Z,64.65
2019-03-16T17:57:55.188Z,65.11
2019-03-16T18:00:24.704Z,65.75
2019-03-16T18:02:54.148Z,66.75
2019-03-16T18:05:23.816Z,66.47
2019-03-16T18:07:53.327Z,66.61
2019-03-16T18:10:22.760Z,66.87
2019-03-16T18:12:52.206Z,67.47
2019-03-16T18:15:22.207Z,67.94
2019-03-16T18:17:51.638Z,68.17
2019-03-16T18:20:21.309Z,68.79
2019-03-16T18:22:50.757Z,68.91
2019-03-16T18:25:20.189Z,69.12
2019-03-16T18:27:49.632Z,69.16
2019-03-16T18:30:21.736Z,69.97
2019-03-16T18:32:51.180Z,70.18
2019-03-16T18:35:20.617Z,70.83
2019-03-16T18:37:50.069Z,70.97
2019-03-16T18:40:19.482Z,70.68
2019-03-16T18:42:48.916Z,70.83
2019-03-16T18:45:30.630Z,71.52
2019-03-16T18:48:00.064Z,71.09
2019-03-16T18:50:29.490Z,71.84
2019-03-16T18:52:58.928Z,72.26
2019-03-16T18:55:28.352Z,72.29
2019-03-16T18:57:57.792Z,72.52
2019-03-16T19:00:27.225Z,72.35
2019-03-16T19:02:56.730Z,72.72
2019-03-16T19:05:26.155Z,73.04
2019-03-16T19:07:55.596Z,73.16
2019-03-16T19:10:25.027Z,73.66
2019-03-16T19:12:54.468Z,73.15
2019-03-16T19:15:23.895Z,73.44
2019-03-16T19:17:59.149Z,73.69
2019-03-16T19:20:24.495Z,74.23
2019-03-16T19:22:53.951Z,74.38
2019-03-16T19:25:23.733Z,74.27
2019-03-16T19:27:53.180Z,74.71
2019-03-16T19:30:22.604Z,74.35
2019-03-16T19:32:52.038Z,74.50
2019-03-16T19:35:21.463Z,74.80
2019-03-16T19:37:50.901Z,74.86
2019-03-16T19:40:22.136Z,75.14
2019-03-16T19:42:51.577Z,75.91
2019-03-16T19:45:21.020Z,75.93
2019-03-16T19:47:50.533Z,75.67
2019-03-16T19:50:19.957Z,75.64
2019-03-16T19:52:49.401Z,76.32
2019-03-16T19:55:18.822Z,76.40
2019-03-16T19:57:48.253Z,76.67
2019-03-16T20:00:18.626Z,76.24
2019-03-16T20:02:51.487Z,76.12
2019-03-16T20:05:19.284Z,76.77
2019-03-16T20:07:48.709Z,76.61
2019-03-16T20:10:22.012Z,76.68
2019-03-16T20:12:53.055Z,76.65
2019-03-16T20:15:22.658Z,76.79
2019-03-16T20:17:52.157Z,77.26
2019-03-16T20:20:21.591Z,76.97
2019-03-16T20:22:51.014Z,77.30
2019-03-16T20:25:20.444Z,77.12
2019-03-16T20:27:49.867Z,77.32
2019-03-16T20:30:26.301Z,77.44
2019-03-16T20:33:02.614Z,78.00
2019-03-16T20:35:21.600Z,78.07
2019-03-16T20:37:51.023Z,77.72
2019-03-16T20:40:20.465Z,78.03
2019-03-16T20:42:49.889Z,78.01
2019-03-16T20:45:19.404Z,77.81
2019-03-16T20:47:49.027Z,78.52
2019-03-16T20:50:19.672Z,78.39
2019-03-16T20:52:49.164Z,78.61
2019-03-16T20:55:18.603Z,78.75
2019-03-16T20:57:48.032Z,78.61
2019-03-16T21:00:18.979Z,78.71
2019-03-16T21:02:48.409Z,77.86
2019-03-16T21:05:17.846Z,78.23
2019-03-16T21:07:47.260Z,78.28
2019-03-16T21:10:16.758Z,78.27
2019-03-16T21:12:46.178Z,78.15
2019-03-16T21:15:19.523Z,78.58
2019-03-16T21:17:48.950Z,78.83
2019-03-16T21:20:20.490Z,78.59
2019-03-16T21:22:49.913Z,78.26
2019-03-16T21:25:19.417Z,78.58
2019-03-16T21:27:48.839Z,78.74
2019-03-16T21:30:21.622Z,78.65
2019-03-16T21:32:51.049Z,78.48
2019-03-16T21:35:20.484Z,78.76
2019-03-16T21:37:49.916Z,78.97
2019-03-16T21:40:19.346Z,79.39
2019-03-16T21:42:48.773Z,79.05
2019-03-16T21:45:18.491Z,78.73
2019-03-16T21:47:59.553Z,79.88
2019-03-16T21:50:19.071Z,79.92
2019-03-16T21:52:48.496Z,80.09
2019-03-16T21:55:17.929Z,79.92
2019-03-16T21:57:47.355Z,79.69
2019-03-16T22:00:18.001Z,79.54
2019-03-16T22:02:47.423Z,79.31
2019-03-16T22:05:16.867Z,79.55
2019-03-16T22:07:46.288Z,79.47
2019-03-16T22:10:17.588Z,79.21
2019-03-16T22:12:46.997Z,78.92
2019-03-16T22:15:17.268Z,78.87
2019-03-16T22:17:47.029Z,78.67
2019-03-16T22:20:21.449Z,78.42
2019-03-16T22:22:50.870Z,77.99
2019-03-16T22:25:20.315Z,77.63
2019-03-16T22:27:51.698Z,77.71
2019-03-16T22:30:20.960Z,77.22
2019-03-16T22:32:50.383Z,77.06
2019-03-16T22:35:19.813Z,73.81
2019-03-16T22:37:49.230Z,73.92
2019-03-16T22:40:18.678Z,71.24
2019-03-16T22:42:48.097Z,72.63
2019-03-16T22:45:17.601Z,72.21
2019-03-16T22:47:47.028Z,70.67
2019-03-16T22:50:20.503Z,69.02
2019-03-16T22:52:49.928Z,68.28
2019-03-16T22:55:19.370Z,70.26
2019-03-16T22:57:48.798Z,69.75
2019-03-16T23:00:37.142Z,69.74
2019-03-16T23:03:06.155Z,68.91
2019-03-16T23:05:37.381Z,69.78
2019-03-16T23:08:06.802Z,69.85
2019-03-16T23:10:36.241Z,68.65
2019-03-16T23:13:05.673Z,69.15
2019-03-16T23:15:35.114Z,69.56
2019-03-16T23:18:04.549Z,69.72
2019-03-16T23:20:33.981Z,69.76
2019-03-16T23:23:03.409Z,69.67
2019-03-16T23:25:32.854Z,70.10
2019-03-16T23:28:02.260Z,70.50
2019-03-16T23:30:31.698Z,70.13
2019-03-16T23:33:01.122Z,70.56
2019-03-16T23:35:30.558Z,71.13
2019-03-16T23:37:59.977Z,71.25
2019-03-16T23:40:29.419Z,72.06
2019-03-16T23:42:58.838Z,72.43
2019-03-16T23:45:28.273Z,72.78
2019-03-16T23:47:57.700Z,72.82
2019-03-16T23:50:27.134Z,73.18
2019-03-16T23:52:56.567Z,73.52
2019-03-16T23:55:25.996Z,74.18
2019-03-16T23:57:56.502Z,74.27
